sensor_id;sensor_type;location;lat;lon;timestamp;temperature;humidity
38183;DHT22;23991;52.430;10.586;2022-10-22T00:02:09;13.80;89.60
38183;DHT22;23991;52.430;10.586;2022-10-22T00:04:34;13.80;89.60
38183;DHT22;23991;52.430;10.586;2022-10-22T00:07:00;13.80;89.70
38183;DHT22;23991;52.430;10.586;2022-10-22T00:09:25;13.80;89.60
38183;DHT22;23991;52.430;10.586;2022-10-22T00:11:51;13.80;89.50
38183;DHT22;23991;52.430;10.586;2022-10-22T00:14:17;13.80;89.30
38183;DHT22;23991;52.430;10.586;2022-10-22T00:16:42;13.80;89.20
38183;DHT22;23991;52.430;10.586;2022-10-22T00:19:08;13.80;89.20
38183;DHT22;23991;52.430;10.586;2022-10-22T00:21:35;13.80;89.20
38183;DHT22;23991;52.430;10.586;2022-10-22T00:24:01;13.80;89.20
38183;DHT22;23991;52.430;10.586;2022-10-22T00:26:26;13.70;89.30
38183;DHT22;23991;52.430;10.586;2022-10-22T00:28:52;13.70;89.50
38183;DHT22;23991;52.430;10.586;2022-10-22T00:31:18;13.80;89.60
38183;DHT22;23991;52.430;10.586;2022-10-22T00:33:46;13.80;89.70
38183;DHT22;23991;52.430;10.586;2022-10-22T00:36:13;13.80;90.00
38183;DHT22;23991;52.430;10.586;2022-10-22T00:38:38;13.80;90.30
38183;DHT22;23991;52.430;10.586;2022-10-22T00:41:04;13.80;90.40
38183;DHT22;23991;52.430;10.586;2022-10-22T00:43:30;13.80;90.50
38183;DHT22;23991;52.430;10.586;2022-10-22T00:45:55;13.80;90.60
38183;DHT22;23991;52.430;10.586;2022-10-22T00:50:50;13.80;90.70
38183;DHT22;23991;52.430;10.586;2022-10-22T00:53:23;13.80;90.50
38183;DHT22;23991;52.430;10.586;2022-10-22T00:55:52;13.80;90.60
38183;DHT22;23991;52.430;10.586;2022-10-22T00:58:19;13.80;90.50
38183;DHT22;23991;52.430;10.586;2022-10-22T01:00:47;13.80;90.50
38183;DHT22;23991;52.430;10.586;2022-10-22T01:03:13;13.80;90.60
38183;DHT22;23991;52.430;10.586;2022-10-22T01:05:43;13.80;90.60
38183;DHT22;23991;52.430;10.586;2022-10-22T01:13:47;13.80;90.80
38183;DHT22;23991;52.430;10.586;2022-10-22T01:22:10;13.80;90.50
38183;DHT22;23991;52.430;10.586;2022-10-22T01:25:43;13.70;90.50
38183;DHT22;23991;52.430;10.586;2022-10-22T01:30:23;13.70;90.50
38183;DHT22;23991;52.430;10.586;2022-10-22T01:32:53;13.80;90.40
38183;DHT22;23991;52.430;10.586;2022-10-22T01:35:26;13.70;90.20
38183;DHT22;23991;52.430;10.586;2022-10-22T01:37:55;13.70;90.10
38183;DHT22;23991;52.430;10.586;2022-10-22T01:40:22;13.70;90.00
38183;DHT22;23991;52.430;10.586;2022-10-22T01:42:59;13.70;89.90
38183;DHT22;23991;52.430;10.586;2022-10-22T01:45:27;13.60;89.70
38183;DHT22;23991;52.430;10.586;2022-10-22T01:48:13;13.70;89.70
38183;DHT22;23991;52.430;10.586;2022-10-22T01:53:49;13.70;89.80
38183;DHT22;23991;52.430;10.586;2022-10-22T02:06:42;13.60;89.30
38183;DHT22;23991;52.430;10.586;2022-10-22T02:09:09;13.60;89.20
38183;DHT22;23991;52.430;10.586;2022-10-22T02:11:37;13.50;89.00
38183;DHT22;23991;52.430;10.586;2022-10-22T02:14:04;13.50;88.90
38183;DHT22;23991;52.430;10.586;2022-10-22T02:16:34;13.50;88.90
38183;DHT22;23991;52.430;10.586;2022-10-22T02:19:05;13.50;88.90
38183;DHT22;23991;52.430;10.586;2022-10-22T02:21:31;13.50;88.90
38183;DHT22;23991;52.430;10.586;2022-10-22T02:23:57;13.50;88.80
38183;DHT22;23991;52.430;10.586;2022-10-22T02:26:30;13.50;88.60
38183;DHT22;23991;52.430;10.586;2022-10-22T02:29:02;13.50;88.50
38183;DHT22;23991;52.430;10.586;2022-10-22T02:31:32;13.50;88.50
38183;DHT22;23991;52.430;10.586;2022-10-22T02:34:03;13.50;88.50
38183;DHT22;23991;52.430;10.586;2022-10-22T02:36:30;13.40;88.40
38183;DHT22;23991;52.430;10.586;2022-10-22T02:38:57;13.40;88.50
38183;DHT22;23991;52.430;10.586;2022-10-22T02:41:22;13.50;88.60
38183;DHT22;23991;52.430;10.586;2022-10-22T02:43:53;13.40;88.60
38183;DHT22;23991;52.430;10.586;2022-10-22T02:46:19;13.40;88.90
38183;DHT22;23991;52.430;10.586;2022-10-22T02:48:45;13.40;89.00
38183;DHT22;23991;52.430;10.586;2022-10-22T02:51:11;13.40;89.10
38183;DHT22;23991;52.430;10.586;2022-10-22T02:53:37;13.50;89.00
38183;DHT22;23991;52.430;10.586;2022-10-22T02:56:03;13.50;89.00
38183;DHT22;23991;52.430;10.586;2022-10-22T02:58:28;13.50;89.00
38183;DHT22;23991;52.430;10.586;2022-10-22T03:00:54;13.50;89.00
38183;DHT22;23991;52.430;10.586;2022-10-22T03:03:20;13.50;89.10
38183;DHT22;23991;52.430;10.586;2022-10-22T03:05:45;13.50;89.10
38183;DHT22;23991;52.430;10.586;2022-10-22T03:08:11;13.40;89.10
38183;DHT22;23991;52.430;10.586;2022-10-22T03:10:36;13.40;88.90
38183;DHT22;23991;52.430;10.586;2022-10-22T03:13:02;13.40;88.90
38183;DHT22;23991;52.430;10.586;2022-10-22T03:15:28;13.40;88.80
38183;DHT22;23991;52.430;10.586;2022-10-22T03:17:53;13.40;88.70
38183;DHT22;23991;52.430;10.586;2022-10-22T03:20:19;13.40;88.60
38183;DHT22;23991;52.430;10.586;2022-10-22T03:22:45;13.30;88.50
38183;DHT22;23991;52.430;10.586;2022-10-22T03:25:14;13.40;88.40
38183;DHT22;23991;52.430;10.586;2022-10-22T03:27:41;13.40;88.30
38183;DHT22;23991;52.430;10.586;2022-10-22T03:30:07;13.30;88.20
38183;DHT22;23991;52.430;10.586;2022-10-22T03:32:33;13.30;88.10
38183;DHT22;23991;52.430;10.586;2022-10-22T03:34:58;13.30;88.10
38183;DHT22;23991;52.430;10.586;2022-10-22T03:37:25;13.30;88.00
38183;DHT22;23991;52.430;10.586;2022-10-22T03:39:52;13.30;88.00
38183;DHT22;23991;52.430;10.586;2022-10-22T03:42:19;13.30;88.00
38183;DHT22;23991;52.430;10.586;2022-10-22T03:44:45;13.30;88.00
38183;DHT22;23991;52.430;10.586;2022-10-22T03:47:11;13.30;88.10
38183;DHT22;23991;52.430;10.586;2022-10-22T03:49:36;13.30;88.10
38183;DHT22;23991;52.430;10.586;2022-10-22T03:52:10;13.30;88.20
38183;DHT22;23991;52.430;10.586;2022-10-22T03:54:37;13.30;88.20
38183;DHT22;23991;52.430;10.586;2022-10-22T03:57:06;13.30;88.20
38183;DHT22;23991;52.430;10.586;2022-10-22T03:59:36;13.30;88.20
38183;DHT22;23991;52.430;10.586;2022-10-22T04:02:02;13.30;88.20
38183;DHT22;23991;52.430;10.586;2022-10-22T04:04:28;13.30;88.10
38183;DHT22;23991;52.430;10.586;2022-10-22T04:06:53;13.20;88.00
38183;DHT22;23991;52.430;10.586;2022-10-22T04:09:19;13.20;87.90
38183;DHT22;23991;52.430;10.586;2022-10-22T04:11:44;13.20;87.90
38183;DHT22;23991;52.430;10.586;2022-10-22T04:14:10;13.20;87.90
38183;DHT22;23991;52.430;10.586;2022-10-22T04:16:38;13.20;87.90
38183;DHT22;23991;52.430;10.586;2022-10-22T04:19:04;13.20;88.00
38183;DHT22;23991;52.430;10.586;2022-10-22T04:21:30;13.10;87.90
38183;DHT22;23991;52.430;10.586;2022-10-22T04:23:56;13.20;87.90
38183;DHT22;23991;52.430;10.586;2022-10-22T04:26:22;13.20;88.00
38183;DHT22;23991;52.430;10.586;2022-10-22T04:28:49;13.10;88.10
38183;DHT22;23991;52.430;10.586;2022-10-22T04:31:20;13.20;88.20
38183;DHT22;23991;52.430;10.586;2022-10-22T04:33:46;13.20;88.20
38183;DHT22;23991;52.430;10.586;2022-10-22T04:36:15;13.20;88.20
38183;DHT22;23991;52.430;10.586;2022-10-22T04:38:43;13.10;88.20
38183;DHT22;23991;52.430;10.586;2022-10-22T04:41:15;13.10;88.10
38183;DHT22;23991;52.430;10.586;2022-10-22T04:43:42;13.10;88.20
38183;DHT22;23991;52.430;10.586;2022-10-22T04:46:08;13.10;88.20
38183;DHT22;23991;52.430;10.586;2022-10-22T04:48:38;13.10;88.20
38183;DHT22;23991;52.430;10.586;2022-10-22T04:51:06;13.10;88.20
38183;DHT22;23991;52.430;10.586;2022-10-22T04:53:32;13.10;88.30
38183;DHT22;23991;52.430;10.586;2022-10-22T04:56:15;13.10;88.30
38183;DHT22;23991;52.430;10.586;2022-10-22T04:58:42;13.10;88.30
38183;DHT22;23991;52.430;10.586;2022-10-22T05:01:17;13.10;88.30
38183;DHT22;23991;52.430;10.586;2022-10-22T05:03:43;13.10;88.20
38183;DHT22;23991;52.430;10.586;2022-10-22T05:06:09;13.10;88.20
38183;DHT22;23991;52.430;10.586;2022-10-22T05:08:35;13.10;88.40
38183;DHT22;23991;52.430;10.586;2022-10-22T05:11:01;13.10;88.50
38183;DHT22;23991;52.430;10.586;2022-10-22T05:13:34;13.10;88.50
38183;DHT22;23991;52.430;10.586;2022-10-22T05:16:00;13.10;88.50
38183;DHT22;23991;52.430;10.586;2022-10-22T05:18:26;13.10;88.40
38183;DHT22;23991;52.430;10.586;2022-10-22T05:20:52;13.00;88.40
38183;DHT22;23991;52.430;10.586;2022-10-22T05:23:17;13.00;88.30
38183;DHT22;23991;52.430;10.586;2022-10-22T05:25:43;13.00;88.20
38183;DHT22;23991;52.430;10.586;2022-10-22T05:28:08;13.00;88.20
38183;DHT22;23991;52.430;10.586;2022-10-22T05:30:34;13.00;88.10
38183;DHT22;23991;52.430;10.586;2022-10-22T05:32:59;13.00;88.00
38183;DHT22;23991;52.430;10.586;2022-10-22T05:35:25;13.00;88.00
38183;DHT22;23991;52.430;10.586;2022-10-22T05:37:51;13.00;88.10
38183;DHT22;23991;52.430;10.586;2022-10-22T05:40:16;13.00;88.30
38183;DHT22;23991;52.430;10.586;2022-10-22T05:42:42;13.00;88.60
38183;DHT22;23991;52.430;10.586;2022-10-22T05:45:08;13.00;88.80
38183;DHT22;23991;52.430;10.586;2022-10-22T05:47:33;13.10;88.80
38183;DHT22;23991;52.430;10.586;2022-10-22T05:49:59;13.10;88.80
38183;DHT22;23991;52.430;10.586;2022-10-22T05:52:24;13.10;88.90
38183;DHT22;23991;52.430;10.586;2022-10-22T05:54:50;13.10;88.90
38183;DHT22;23991;52.430;10.586;2022-10-22T05:57:16;13.10;88.90
38183;DHT22;23991;52.430;10.586;2022-10-22T05:59:41;13.10;88.90
38183;DHT22;23991;52.430;10.586;2022-10-22T06:02:08;13.00;88.90
38183;DHT22;23991;52.430;10.586;2022-10-22T06:04:34;13.00;88.90
38183;DHT22;23991;52.430;10.586;2022-10-22T06:06:59;13.00;88.90
38183;DHT22;23991;52.430;10.586;2022-10-22T06:09:35;13.10;89.00
38183;DHT22;23991;52.430;10.586;2022-10-22T06:12:01;13.10;88.90
38183;DHT22;23991;52.430;10.586;2022-10-22T06:14:27;13.00;88.90
38183;DHT22;23991;52.430;10.586;2022-10-22T06:16:53;13.00;89.00
38183;DHT22;23991;52.430;10.586;2022-10-22T06:19:21;13.10;89.20
38183;DHT22;23991;52.430;10.586;2022-10-22T06:21:47;13.10;89.40
38183;DHT22;23991;52.430;10.586;2022-10-22T06:24:14;13.10;89.60
38183;DHT22;23991;52.430;10.586;2022-10-22T06:26:40;13.10;89.60
38183;DHT22;23991;52.430;10.586;2022-10-22T06:29:06;13.20;89.80
38183;DHT22;23991;52.430;10.586;2022-10-22T06:31:32;13.30;90.00
38183;DHT22;23991;52.430;10.586;2022-10-22T06:34:05;13.40;90.10
38183;DHT22;23991;52.430;10.586;2022-10-22T06:36:31;13.40;90.10
38183;DHT22;23991;52.430;10.586;2022-10-22T06:38:57;13.50;90.20
38183;DHT22;23991;52.430;10.586;2022-10-22T06:41:23;13.60;90.10
38183;DHT22;23991;52.430;10.586;2022-10-22T06:43:49;13.70;90.10
38183;DHT22;23991;52.430;10.586;2022-10-22T06:46:17;13.70;89.90
38183;DHT22;23991;52.430;10.586;2022-10-22T06:48:51;13.80;89.70
38183;DHT22;23991;52.430;10.586;2022-10-22T06:51:17;13.80;89.50
38183;DHT22;23991;52.430;10.586;2022-10-22T06:53:43;13.90;89.30
38183;DHT22;23991;52.430;10.586;2022-10-22T06:56:11;14.10;89.30
38183;DHT22;23991;52.430;10.586;2022-10-22T06:58:37;14.10;89.10
38183;DHT22;23991;52.430;10.586;2022-10-22T07:01:05;14.20;88.90
38183;DHT22;23991;52.430;10.586;2022-10-22T07:03:31;14.30;88.70
38183;DHT22;23991;52.430;10.586;2022-10-22T07:06:06;14.30;88.60
38183;DHT22;23991;52.430;10.586;2022-10-22T07:08:32;14.40;88.30
38183;DHT22;23991;52.430;10.586;2022-10-22T07:11:22;14.50;88.20
38183;DHT22;23991;52.430;10.586;2022-10-22T07:13:48;14.60;87.90
38183;DHT22;23991;52.430;10.586;2022-10-22T07:16:14;14.70;87.70
38183;DHT22;23991;52.430;10.586;2022-10-22T07:18:40;14.80;87.60
38183;DHT22;23991;52.430;10.586;2022-10-22T07:21:07;14.90;87.30
38183;DHT22;23991;52.430;10.586;2022-10-22T07:23:34;15.10;87.00
38183;DHT22;23991;52.430;10.586;2022-10-22T07:26:00;15.10;86.70
38183;DHT22;23991;52.430;10.586;2022-10-22T07:28:27;15.20;86.50
38183;DHT22;23991;52.430;10.586;2022-10-22T07:30:53;15.30;86.10
38183;DHT22;23991;52.430;10.586;2022-10-22T07:33:18;15.40;85.70
38183;DHT22;23991;52.430;10.586;2022-10-22T07:35:44;15.50;85.20
38183;DHT22;23991;52.430;10.586;2022-10-22T07:38:10;15.50;85.00
38183;DHT22;23991;52.430;10.586;2022-10-22T07:40:35;15.60;84.80
38183;DHT22;23991;52.430;10.586;2022-10-22T07:43:01;15.70;84.60
38183;DHT22;23991;52.430;10.586;2022-10-22T07:45:27;15.80;84.40
38183;DHT22;23991;52.430;10.586;2022-10-22T07:47:53;15.80;84.00
38183;DHT22;23991;52.430;10.586;2022-10-22T07:50:19;16.00;83.50
38183;DHT22;23991;52.430;10.586;2022-10-22T07:52:44;16.00;83.40
38183;DHT22;23991;52.430;10.586;2022-10-22T07:55:11;16.30;83.10
38183;DHT22;23991;52.430;10.586;2022-10-22T07:57:38;16.50;82.20
38183;DHT22;23991;52.430;10.586;2022-10-22T08:00:05;16.50;81.70
38183;DHT22;23991;52.430;10.586;2022-10-22T08:02:30;16.60;81.50
38183;DHT22;23991;52.430;10.586;2022-10-22T08:04:56;16.70;81.20
38183;DHT22;23991;52.430;10.586;2022-10-22T08:07:22;16.80;80.80
38183;DHT22;23991;52.430;10.586;2022-10-22T08:09:48;16.80;80.70
38183;DHT22;23991;52.430;10.586;2022-10-22T08:12:14;16.80;80.40
38183;DHT22;23991;52.430;10.586;2022-10-22T08:14:39;16.90;80.10
38183;DHT22;23991;52.430;10.586;2022-10-22T08:17:05;17.00;80.00
38183;DHT22;23991;52.430;10.586;2022-10-22T08:19:30;17.30;79.70
38183;DHT22;23991;52.430;10.586;2022-10-22T08:21:57;17.60;78.80
38183;DHT22;23991;52.430;10.586;2022-10-22T08:24:23;18.10;77.60
38183;DHT22;23991;52.430;10.586;2022-10-22T08:26:48;18.40;76.00
38183;DHT22;23991;52.430;10.586;2022-10-22T08:29:14;18.90;74.50
38183;DHT22;23991;52.430;10.586;2022-10-22T08:31:40;19.40;72.60
38183;DHT22;23991;52.430;10.586;2022-10-22T08:34:05;19.70;71.40
38183;DHT22;23991;52.430;10.586;2022-10-22T08:36:32;20.10;70.10
38183;DHT22;23991;52.430;10.586;2022-10-22T08:38:58;20.30;68.80
38183;DHT22;23991;52.430;10.586;2022-10-22T08:41:24;20.60;68.40
38183;DHT22;23991;52.430;10.586;2022-10-22T08:44:03;20.70;67.70
38183;DHT22;23991;52.430;10.586;2022-10-22T08:49:32;21.70;64.60
38183;DHT22;23991;52.430;10.586;2022-10-22T08:51:59;22.30;62.50
38183;DHT22;23991;52.430;10.586;2022-10-22T08:54:36;22.70;61.70
38183;DHT22;23991;52.430;10.586;2022-10-22T08:57:14;23.00;60.60
38183;DHT22;23991;52.430;10.586;2022-10-22T09:04:49;23.80;58.10
38183;DHT22;23991;52.430;10.586;2022-10-22T09:07:17;24.10;57.20
38183;DHT22;23991;52.430;10.586;2022-10-22T09:09:48;24.20;55.80
38183;DHT22;23991;52.430;10.586;2022-10-22T09:12:15;24.70;54.60
38183;DHT22;23991;52.430;10.586;2022-10-22T09:14:42;24.70;55.00
38183;DHT22;23991;52.430;10.586;2022-10-22T09:17:25;25.00;54.20
38183;DHT22;23991;52.430;10.586;2022-10-22T09:20:14;25.50;53.20
38183;DHT22;23991;52.430;10.586;2022-10-22T09:23:16;25.50;52.60
38183;DHT22;23991;52.430;10.586;2022-10-22T09:25:44;25.70;52.40
38183;DHT22;23991;52.430;10.586;2022-10-22T09:28:11;26.20;51.10
38183;DHT22;23991;52.430;10.586;2022-10-22T09:30:38;26.20;51.00
38183;DHT22;23991;52.430;10.586;2022-10-22T09:33:17;26.90;50.20
38183;DHT22;23991;52.430;10.586;2022-10-22T09:38:14;27.30;48.00
38183;DHT22;23991;52.430;10.586;2022-10-22T09:40:46;27.60;47.40
38183;DHT22;23991;52.430;10.586;2022-10-22T09:43:13;28.00;46.80
38183;DHT22;23991;52.430;10.586;2022-10-22T09:45:39;28.20;45.60
38183;DHT22;23991;52.430;10.586;2022-10-22T09:50:48;28.00;45.50
38183;DHT22;23991;52.430;10.586;2022-10-22T09:53:21;28.40;44.80
38183;DHT22;23991;52.430;10.586;2022-10-22T09:55:54;28.80;44.00
38183;DHT22;23991;52.430;10.586;2022-10-22T09:58:20;29.00;44.10
38183;DHT22;23991;52.430;10.586;2022-10-22T10:00:53;29.20;43.40
38183;DHT22;23991;52.430;10.586;2022-10-22T10:03:27;29.30;43.60
38183;DHT22;23991;52.430;10.586;2022-10-22T10:05:56;29.30;43.40
38183;DHT22;23991;52.430;10.586;2022-10-22T10:08:22;29.80;42.70
38183;DHT22;23991;52.430;10.586;2022-10-22T10:10:58;29.40;43.20
38183;DHT22;23991;52.430;10.586;2022-10-22T10:13:42;30.00;42.50
38183;DHT22;23991;52.430;10.586;2022-10-22T10:16:28;30.50;41.20
38183;DHT22;23991;52.430;10.586;2022-10-22T10:22:13;30.50;40.30
38183;DHT22;23991;52.430;10.586;2022-10-22T10:25:02;30.70;39.50
38183;DHT22;23991;52.430;10.586;2022-10-22T10:27:43;30.70;39.10
38183;DHT22;23991;52.430;10.586;2022-10-22T10:30:19;30.60;38.90
38183;DHT22;23991;52.430;10.586;2022-10-22T10:35:52;31.00;38.30
38183;DHT22;23991;52.430;10.586;2022-10-22T10:38:33;31.10;37.60
38183;DHT22;23991;52.430;10.586;2022-10-22T10:49:23;31.70;37.30
38183;DHT22;23991;52.430;10.586;2022-10-22T11:08:45;32.30;36.30
38183;DHT22;23991;52.430;10.586;2022-10-22T11:11:19;32.30;36.10
38183;DHT22;23991;52.430;10.586;2022-10-22T11:13:56;32.40;36.10
38183;DHT22;23991;52.430;10.586;2022-10-22T11:16:33;32.50;35.90
38183;DHT22;23991;52.430;10.586;2022-10-22T11:19:11;32.00;36.40
38183;DHT22;23991;52.430;10.586;2022-10-22T11:21:49;32.10;36.80
38183;DHT22;23991;52.430;10.586;2022-10-22T11:24:38;32.20;36.60
38183;DHT22;23991;52.430;10.586;2022-10-22T11:27:10;31.90;36.50
38183;DHT22;23991;52.430;10.586;2022-10-22T11:29:43;32.00;36.70
38183;DHT22;23991;52.430;10.586;2022-10-22T11:32:17;32.00;36.50
38183;DHT22;23991;52.430;10.586;2022-10-22T11:34:56;32.20;36.30
38183;DHT22;23991;52.430;10.586;2022-10-22T11:37:25;31.90;37.00
38183;DHT22;23991;52.430;10.586;2022-10-22T11:39:53;31.80;37.00
38183;DHT22;23991;52.430;10.586;2022-10-22T11:42:34;31.70;37.20
38183;DHT22;23991;52.430;10.586;2022-10-22T11:47:32;32.00;36.90
38183;DHT22;23991;52.430;10.586;2022-10-22T11:58:28;30.30;39.40
38183;DHT22;23991;52.430;10.586;2022-10-22T12:16:42;29.70;41.20
38183;DHT22;23991;52.430;10.586;2022-10-22T12:22:20;29.80;40.70
38183;DHT22;23991;52.430;10.586;2022-10-22T12:24:51;29.60;41.10
38183;DHT22;23991;52.430;10.586;2022-10-22T12:29:45;29.40;42.00
38183;DHT22;23991;52.430;10.586;2022-10-22T12:32:13;29.50;41.40
38183;DHT22;23991;52.430;10.586;2022-10-22T12:34:48;29.70;41.40
38183;DHT22;23991;52.430;10.586;2022-10-22T12:37:15;29.40;41.60
38183;DHT22;23991;52.430;10.586;2022-10-22T12:39:41;29.00;42.60
38183;DHT22;23991;52.430;10.586;2022-10-22T12:42:11;28.70;43.50
38183;DHT22;23991;52.430;10.586;2022-10-22T12:44:37;28.20;44.50
38183;DHT22;23991;52.430;10.586;2022-10-22T12:47:04;28.00;45.40
38183;DHT22;23991;52.430;10.586;2022-10-22T12:49:38;27.70;45.90
38183;DHT22;23991;52.430;10.586;2022-10-22T12:52:07;27.60;45.80
38183;DHT22;23991;52.430;10.586;2022-10-22T12:54:37;27.60;45.60
38183;DHT22;23991;52.430;10.586;2022-10-22T12:57:04;27.70;45.50
38183;DHT22;23991;52.430;10.586;2022-10-22T12:59:39;27.40;46.00
38183;DHT22;23991;52.430;10.586;2022-10-22T13:07:38;28.40;43.40
38183;DHT22;23991;52.430;10.586;2022-10-22T13:10:30;28.60;42.70
38183;DHT22;23991;52.430;10.586;2022-10-22T13:12:57;28.90;41.80
38183;DHT22;23991;52.430;10.586;2022-10-22T13:18:19;29.30;40.50
38183;DHT22;23991;52.430;10.586;2022-10-22T13:23:21;29.30;40.40
38183;DHT22;23991;52.430;10.586;2022-10-22T13:28:23;28.90;41.80
38183;DHT22;23991;52.430;10.586;2022-10-22T13:30:53;28.80;41.50
38183;DHT22;23991;52.430;10.586;2022-10-22T13:33:23;28.50;41.90
38183;DHT22;23991;52.430;10.586;2022-10-22T13:35:57;28.20;42.20
38183;DHT22;23991;52.430;10.586;2022-10-22T13:38:24;27.80;42.70
38183;DHT22;23991;52.430;10.586;2022-10-22T13:40:53;27.70;42.60
38183;DHT22;23991;52.430;10.586;2022-10-22T13:43:25;26.90;45.00
38183;DHT22;23991;52.430;10.586;2022-10-22T13:45:54;26.60;46.70
38183;DHT22;23991;52.430;10.586;2022-10-22T13:48:22;26.50;46.80
38183;DHT22;23991;52.430;10.586;2022-10-22T13:50:50;26.50;47.50
38183;DHT22;23991;52.430;10.586;2022-10-22T13:53:22;26.40;47.70
38183;DHT22;23991;52.430;10.586;2022-10-22T13:55:52;26.50;47.90
38183;DHT22;23991;52.430;10.586;2022-10-22T13:58:20;26.40;47.80
38183;DHT22;23991;52.430;10.586;2022-10-22T14:00:59;26.40;48.30
38183;DHT22;23991;52.430;10.586;2022-10-22T14:03:32;26.20;48.60
38183;DHT22;23991;52.430;10.586;2022-10-22T14:05:59;26.40;48.10
38183;DHT22;23991;52.430;10.586;2022-10-22T14:08:26;26.30;48.20
38183;DHT22;23991;52.430;10.586;2022-10-22T14:10:52;26.20;48.30
38183;DHT22;23991;52.430;10.586;2022-10-22T14:13:19;26.00;49.00
38183;DHT22;23991;52.430;10.586;2022-10-22T14:15:47;25.80;49.30
38183;DHT22;23991;52.430;10.586;2022-10-22T14:18:22;25.90;48.70
38183;DHT22;23991;52.430;10.586;2022-10-22T14:20:53;25.90;49.30
38183;DHT22;23991;52.430;10.586;2022-10-22T14:23:21;26.40;48.40
38183;DHT22;23991;52.430;10.586;2022-10-22T14:25:47;26.60;47.70
38183;DHT22;23991;52.430;10.586;2022-10-22T14:28:15;26.70;47.00
38183;DHT22;23991;52.430;10.586;2022-10-22T14:30:42;26.20;48.30
38183;DHT22;23991;52.430;10.586;2022-10-22T14:35:39;26.00;49.20
38183;DHT22;23991;52.430;10.586;2022-10-22T14:38:05;25.50;50.30
38183;DHT22;23991;52.430;10.586;2022-10-22T14:40:30;25.30;51.20
38183;DHT22;23991;52.430;10.586;2022-10-22T14:42:57;25.00;52.00
38183;DHT22;23991;52.430;10.586;2022-10-22T14:45:26;24.80;52.40
38183;DHT22;23991;52.430;10.586;2022-10-22T14:47:52;24.90;52.00
38183;DHT22;23991;52.430;10.586;2022-10-22T14:50:23;24.70;52.40
38183;DHT22;23991;52.430;10.586;2022-10-22T14:52:49;24.40;53.00
38183;DHT22;23991;52.430;10.586;2022-10-22T14:55:17;24.20;52.90
38183;DHT22;23991;52.430;10.586;2022-10-22T14:57:43;24.20;52.40
38183;DHT22;23991;52.430;10.586;2022-10-22T15:00:12;23.70;53.10
38183;DHT22;23991;52.430;10.586;2022-10-22T15:02:38;23.50;53.60
38183;DHT22;23991;52.430;10.586;2022-10-22T15:05:07;23.40;54.70
38183;DHT22;23991;52.430;10.586;2022-10-22T15:07:33;23.30;55.70
38183;DHT22;23991;52.430;10.586;2022-10-22T15:10:00;23.20;56.80
38183;DHT22;23991;52.430;10.586;2022-10-22T15:12:26;23.10;57.40
38183;DHT22;23991;52.430;10.586;2022-10-22T15:14:51;23.20;57.60
38183;DHT22;23991;52.430;10.586;2022-10-22T15:17:17;23.20;57.80
38183;DHT22;23991;52.430;10.586;2022-10-22T15:19:45;23.30;57.90
38183;DHT22;23991;52.430;10.586;2022-10-22T15:22:11;23.00;57.90
38183;DHT22;23991;52.430;10.586;2022-10-22T15:24:43;23.00;58.00
38183;DHT22;23991;52.430;10.586;2022-10-22T15:27:21;23.10;57.70
38183;DHT22;23991;52.430;10.586;2022-10-22T15:29:47;23.20;57.40
38183;DHT22;23991;52.430;10.586;2022-10-22T15:32:15;23.20;56.90
38183;DHT22;23991;52.430;10.586;2022-10-22T15:34:41;23.30;57.20
38183;DHT22;23991;52.430;10.586;2022-10-22T15:37:09;23.20;57.20
38183;DHT22;23991;52.430;10.586;2022-10-22T15:39:42;23.00;57.80
38183;DHT22;23991;52.430;10.586;2022-10-22T15:42:08;23.00;57.80
38183;DHT22;23991;52.430;10.586;2022-10-22T15:44:35;22.70;58.40
38183;DHT22;23991;52.430;10.586;2022-10-22T15:47:04;22.70;58.50
38183;DHT22;23991;52.430;10.586;2022-10-22T15:49:33;22.40;59.00
38183;DHT22;23991;52.430;10.586;2022-10-22T15:51:59;22.30;59.60
38183;DHT22;23991;52.430;10.586;2022-10-22T15:54:32;22.00;59.80
38183;DHT22;23991;52.430;10.586;2022-10-22T15:57:01;22.10;59.90
38183;DHT22;23991;52.430;10.586;2022-10-22T15:59:30;22.10;59.40
38183;DHT22;23991;52.430;10.586;2022-10-22T16:01:55;22.00;59.60
38183;DHT22;23991;52.430;10.586;2022-10-22T16:04:24;21.80;60.10
38183;DHT22;23991;52.430;10.586;2022-10-22T16:06:51;21.70;60.10
38183;DHT22;23991;52.430;10.586;2022-10-22T16:09:20;21.60;60.60
38183;DHT22;23991;52.430;10.586;2022-10-22T16:11:58;21.60;60.50
38183;DHT22;23991;52.430;10.586;2022-10-22T16:14:27;21.30;61.00
38183;DHT22;23991;52.430;10.586;2022-10-22T16:17:00;21.30;61.50
38183;DHT22;23991;52.430;10.586;2022-10-22T16:19:29;21.30;61.20
38183;DHT22;23991;52.430;10.586;2022-10-22T16:22:12;21.20;61.70
38183;DHT22;23991;52.430;10.586;2022-10-22T16:24:42;21.20;61.50
38183;DHT22;23991;52.430;10.586;2022-10-22T16:27:08;21.00;62.10
38183;DHT22;23991;52.430;10.586;2022-10-22T16:29:36;20.80;62.50
38183;DHT22;23991;52.430;10.586;2022-10-22T16:32:02;20.80;62.80
38183;DHT22;23991;52.430;10.586;2022-10-22T16:34:28;20.60;62.80
38183;DHT22;23991;52.430;10.586;2022-10-22T16:36:54;20.50;63.10
38183;DHT22;23991;52.430;10.586;2022-10-22T16:39:21;20.50;63.20
38183;DHT22;23991;52.430;10.586;2022-10-22T16:41:47;20.30;63.40
38183;DHT22;23991;52.430;10.586;2022-10-22T16:44:13;20.30;63.60
38183;DHT22;23991;52.430;10.586;2022-10-22T16:46:42;20.30;63.80
38183;DHT22;23991;52.430;10.586;2022-10-22T16:49:07;20.20;64.00
38183;DHT22;23991;52.430;10.586;2022-10-22T16:51:33;20.00;64.60
38183;DHT22;23991;52.430;10.586;2022-10-22T16:53:59;19.90;65.00
38183;DHT22;23991;52.430;10.586;2022-10-22T16:56:25;19.80;65.30
38183;DHT22;23991;52.430;10.586;2022-10-22T16:58:53;19.80;65.80
38183;DHT22;23991;52.430;10.586;2022-10-22T17:01:24;19.80;65.90
38183;DHT22;23991;52.430;10.586;2022-10-22T17:03:54;19.60;66.60
38183;DHT22;23991;52.430;10.586;2022-10-22T17:06:23;19.40;67.20
38183;DHT22;23991;52.430;10.586;2022-10-22T17:08:52;19.40;67.20
38183;DHT22;23991;52.430;10.586;2022-10-22T17:11:21;19.20;68.20
38183;DHT22;23991;52.430;10.586;2022-10-22T17:13:49;19.10;68.20
38183;DHT22;23991;52.430;10.586;2022-10-22T17:16:18;19.00;68.20
38183;DHT22;23991;52.430;10.586;2022-10-22T17:18:44;19.00;68.70
38183;DHT22;23991;52.430;10.586;2022-10-22T17:21:11;18.90;68.90
38183;DHT22;23991;52.430;10.586;2022-10-22T17:23:44;18.80;69.40
38183;DHT22;23991;52.430;10.586;2022-10-22T17:26:18;18.80;69.60
38183;DHT22;23991;52.430;10.586;2022-10-22T17:28:45;18.70;69.60